Date,TemperatureHighF,TemperatureAvgF,TemperatureLowF,DewpointHighF,DewpointAvgF,DewpointLowF,HumidityHigh,HumidityAvg,HumidityLow,PressureMaxIn,PressureMinIn,WindSpeedMaxMPH,WindSpeedAvgMPH,GustSpeedMaxMPH,PrecipitationSumIn
2013-1-1,19,14,10,10,8,6,85,77,66,30.25,30.21,1,0,2,0.00
2013-1-2,26,14,8,15,8,5,89,78,52,30.28,30.17,4,1,8,0.00
2013-1-3,33,26,21,24,20,16,84,76,59,30.33,30.16,7,3,12,0.00
2013-1-4,34,19,13,24,14,10,86,82,64,30.32,30.25,8,4,14,0.00
2013-1-6,33,27,21,27,22,18,91,82,75,30.37,30.00,7,4,15,0.00
2013-1-7,35,32,28,28,27,25,88,81,74,30.36,30.16,5,3,9,0.00
2013-1-8,43,34,26,34,29,23,91,82,67,30.21,30.07,6,2,13,0.00
2013-1-9,51,40,25,36,30,21,87,70,40,30.53,30.06,8,4,15,0.00
2013-1-10,44,41,38,43,38,31,98,90,66,30.19,29.88,7,3,11,0.48
2013-1-11,54,51,44,54,49,43,99,93,88,29.88,29.69,7,4,14,0.23
2013-1-12,53,43,31,49,39,29,94,87,77,29.98,29.74,6,3,15,0.11
2013-1-13,32,23,14,30,20,9,95,88,80,30.31,29.89,5,3,11,0.00
2013-1-14,27,17,12,18,13,9,93,83,64,30.51,30.30,3,1,9,0.00
2013-1-15,32,20,10,23,16,8,94,86,68,30.49,30.16,2,0,6,0.00
2013-1-16,37,27,14,29,22,12,95,81,65,30.16,29.91,8,3,17,0.00
2013-1-17,36,30,22,31,21,14,95,72,52,30.42,30.09,5,2,11,0.00
2013-1-19,42,42,42,36,36,36,77,77,77,29.84,29.84,4,4,4,0.00
2013-1-20,25,19,14,14,8,6,72,63,56,30.34,30.07,9,4,15,0.00
2013-1-21,16,12,8,9,1,-4,82,63,47,30.32,30.20,9,6,18,0.00
2013-1-23,23,21,13,15,11,5,80,66,58,30.38,30.16,6,2,13,0.00
2013-1-24,25,16,7,10,5,-1,73,61,42,30.68,30.38,4,2,8,0.00
2013-1-25,33,25,19,23,17,10,89,74,61,30.42,30.02,7,2,14,0.00
2013-1-26,31,22,10,21,13,7,87,71,46,30.44,30.21,3,1,6,0.00
2013-1-27,35,26,24,33,21,19,93,80,77,30.42,30.01,3,1,9,0.10